Time;durP1;ratioP1;P1;durP2;ratioP2;P2;SDS_P1;SDS_P2;PMS_P1;PMS_P2;Temp;Humidity;BMP_temperature;BMP_pressure;BME280_temperature;BME280_humidity;BME280_pressure;Samples;Min_cycle;Max_cycle;Signal;HPM_P1;HPM_P2
2022/07/30 00:00:17;;;;;;;4.83;4.43;;;;;;;21.17;96.48;100326.94;4986054;28;20639;-77
2022/07/30 00:02:43;;;;;;;5.40;4.27;;;;;;;21.07;97.14;100318.66;4983773;28;20220;-75
2022/07/30 00:05:08;;;;;;;4.67;4.37;;;;;;;20.96;98.04;100310.50;4985294;28;20188;-76
2022/07/30 00:07:34;;;;;;;5.80;4.40;;;;;;;20.87;98.39;100327.59;4987598;28;20239;-75
2022/07/30 00:10:01;;;;;;;4.83;4.20;;;;;;;20.76;98.78;100317.63;4981178;28;20664;-75
2022/07/30 00:12:26;;;;;;;5.20;4.70;;;;;;;20.70;99.09;100315.28;4983066;28;20192;-74
2022/07/30 00:14:51;;;;;;;4.57;4.17;;;;;;;20.63;99.69;100321.78;4984287;28;20209;-74
2022/07/30 00:17:17;;;;;;;5.30;4.47;;;;;;;20.58;100.00;100316.75;4985308;28;20612;-74
2022/07/30 00:19:42;;;;;;;4.77;4.37;;;;;;;20.54;100.00;100320.47;4981142;28;20770;-75
2022/07/30 00:22:07;;;;;;;4.47;4.17;;;;;;;20.48;100.00;100313.75;4986017;28;20577;-74
2022/07/30 00:24:33;;;;;;;5.33;4.53;;;;;;;20.41;100.00;100320.25;4999962;28;20181;-74
2022/07/30 00:26:58;;;;;;;4.60;4.30;;;;;;;20.31;100.00;100321.59;4986680;28;20264;-74
2022/07/30 00:29:36;;;;;;;5.10;4.70;;;;;;;20.19;100.00;100318.66;4986771;28;20339;-73
2022/07/30 00:32:01;;;;;;;5.57;5.07;;;;;;;20.08;100.00;100316.53;5000630;28;20207;-75
2022/07/30 00:34:26;;;;;;;4.80;4.40;;;;;;;19.99;100.00;100317.00;4979838;28;20214;-75
2022/07/30 00:36:52;;;;;;;4.30;4.00;;;;;;;19.89;100.00;100313.13;4984781;28;20263;-75
2022/07/30 00:39:17;;;;;;;5.17;4.87;;;;;;;19.83;100.00;100311.56;4988458;28;20261;-75
2022/07/30 00:42:00;;;;;;;4.30;4.00;;;;;;;19.80;100.00;100307.34;4980254;28;20230;-75
2022/07/30 00:44:27;;;;;;;4.77;4.47;;;;;;;19.78;100.00;100313.59;4982415;28;20192;-75
2022/07/30 00:46:53;;;;;;;4.90;4.50;;;;;;;19.76;100.00;100316.28;4999013;28;20192;-75
2022/07/30 00:49:19;;;;;;;5.00;4.60;;;;;;;19.75;100.00;100309.31;4982573;28;20641;-75
2022/07/30 00:51:45;;;;;;;4.23;3.90;;;;;;;19.75;100.00;100314.56;4985313;28;20268;-75
2022/07/30 00:54:11;;;;;;;4.47;4.17;;;;;;;19.74;100.00;100306.78;4982527;28;20212;-74
2022/07/30 00:56:36;;;;;;;4.00;3.70;;;;;;;19.70;100.00;100311.31;4985066;28;20193;-75
2022/07/30 00:59:03;;;;;;;5.00;4.60;;;;;;;19.64;100.00;100312.47;4981822;28;20552;-74
2022/07/30 01:01:31;;;;;;;4.50;4.20;;;;;;;19.59;100.00;100316.19;4983344;28;20199;-76
2022/07/30 01:03:57;;;;;;;4.80;4.40;;;;;;;19.53;100.00;100319.97;4982627;28;20282;-74
2022/07/30 01:06:22;;;;;;;4.83;4.43;;;;;;;19.47;100.00;100313.22;4989930;28;20297;-75
2022/07/30 01:08:48;;;;;;;5.17;4.67;;;;;;;19.41;100.00;100321.41;4989372;28;20190;-75
2022/07/30 01:11:13;;;;;;;4.43;4.10;;;;;;;19.37;100.00;100313.72;4974166;28;20239;-75
2022/07/30 01:13:39;;;;;;;5.87;4.50;;;;;;;19.31;100.00;100317.47;4986625;28;20204;-74
2022/07/30 01:16:04;;;;;;;5.50;5.10;;;;;;;19.28;100.00;100313.22;4975364;28;20191;-75
2022/07/30 01:21:28;;;;;;;5.27;4.87;;;;;;;19.17;100.00;100300.56;4984038;28;20225;-75
2022/07/30 01:23:57;;;;;;;4.87;4.43;;;;;;;19.12;100.00;100301.69;4980804;28;20203;-75
2022/07/30 01:26:23;;;;;;;5.00;4.60;;;;;;;19.09;100.00;100293.97;4981434;28;20241;-75
2022/07/30 01:28:53;;;;;;;4.67;4.37;;;;;;;19.06;100.00;100294.97;4984938;28;20202;-74
2022/07/30 01:31:20;;;;;;;4.87;4.50;;;;;;;19.04;100.00;100295.03;4978730;28;20608;-75
2022/07/30 01:33:47;;;;;;;5.40;5.00;;;;;;;19.06;100.00;100300.22;4985262;28;20217;-75
2022/07/30 01:36:16;;;;;;;5.60;5.20;;;;;;;19.03;100.00;100305.59;4983800;28;20193;-76
2022/07/30 01:38:45;;;;;;;5.10;4.70;;;;;;;19.00;100.00;100298.72;4984852;28;20187;-75
2022/07/30 01:41:13;;;;;;;5.83;5.33;;;;;;;18.91;100.00;100301.69;4987498;28;20207;-75
2022/07/30 01:43:44;;;;;;;4.77;4.37;;;;;;;18.81;100.00;100311.75;4990263;28;20174;-76
2022/07/30 01:46:10;;;;;;;4.80;4.50;;;;;;;18.73;100.00;100309.44;4985496;28;20680;-75
2022/07/30 01:48:39;;;;;;;5.07;4.67;;;;;;;18.69;100.00;100309.63;4983616;28;20227;-76
2022/07/30 01:51:07;;;;;;;4.80;4.40;;;;;;;18.66;100.00;100305.38;4984273;28;20598;-76
2022/07/30 01:53:37;;;;;;;5.23;4.93;;;;;;;18.64;100.00;100309.81;4984797;28;20759;-76
2022/07/30 01:56:04;;;;;;;5.60;5.20;;;;;;;18.63;100.00;100315.16;4987750;28;21134;-77
2022/07/30 01:58:34;;;;;;;5.80;5.43;;;;;;;18.59;100.00;100312.66;4984804;28;22083;-75
2022/07/30 02:01:00;;;;;;;5.40;4.93;;;;;;;18.55;100.00;100318.09;4983625;28;20213;-75
2022/07/30 02:03:26;;;;;;;5.40;4.90;;;;;;;18.49;100.00;100321.81;4983254;28;20178;-75
2022/07/30 02:05:57;;;;;;;5.63;5.23;;;;;;;18.43;100.00;100316.81;4983232;28;21086;-76
2022/07/30 02:09:04;;;;;;;5.40;4.97;;;;;;;18.36;100.00;100328.47;4982814;28;20325;-74
2022/07/30 02:14:25;;;;;;;5.23;4.83;;;;;;;18.13;100.00;100338.97;4979459;28;20255;-76
2022/07/30 02:16:55;;;;;;;5.50;5.10;;;;;;;18.07;100.00;100330.50;4989639;28;20721;-75
2022/07/30 02:19:23;;;;;;;5.17;4.77;;;;;;;18.01;100.00;100334.19;4980655;28;20245;-75
2022/07/30 02:21:58;;;;;;;5.77;5.37;;;;;;;17.98;100.00;100340.41;4978067;28;20217;-75
2022/07/30 02:24:28;;;;;;;5.40;4.97;;;;;;;17.97;100.00;100343.06;4997647;28;20224;-74
2022/07/30 02:27:11;;;;;;;5.60;5.20;;;;;;;17.95;100.00;100343.13;4982202;28;20633;-75
2022/07/30 02:29:37;;;;;;;5.17;4.73;;;;;;;17.94;100.00;100341.41;4983303;28;20216;-75
2022/07/30 02:32:08;;;;;;;5.80;5.40;;;;;;;17.95;100.00;100344.91;4983357;28;20273;-75
2022/07/30 02:34:36;;;;;;;5.43;5.03;;;;;;;17.93;100.00;100347.56;4985027;28;20210;-75
2022/07/30 02:37:03;;;;;;;5.47;5.07;;;;;;;17.92;100.00;100345.00;4979925;28;20188;-75
2022/07/30 02:39:30;;;;;;;5.27;4.87;;;;;;;17.94;100.00;100351.03;4981176;28;20251;-75
2022/07/30 02:41:57;;;;;;;5.37;4.97;;;;;;;17.92;100.00;100355.47;4988726;28;20213;-75
2022/07/30 02:44:28;;;;;;;5.30;4.90;;;;;;;17.91;100.00;100372.09;4984725;28;20546;-74
2022/07/30 02:46:54;;;;;;;5.40;4.97;;;;;;;17.89;100.00;100369.56;4988253;28;20223;-75
2022/07/30 02:49:22;;;;;;;5.20;4.83;;;;;;;17.86;100.00;100366.16;4986794;28;20205;-73
2022/07/30 02:51:49;;;;;;;5.83;5.30;;;;;;;17.82;100.00;100365.44;4987340;28;20191;-74
2022/07/30 02:54:17;;;;;;;5.27;4.87;;;;;;;17.80;100.00;100378.59;4993405;28;20209;-74
2022/07/30 02:56:45;;;;;;;5.40;5.00;;;;;;;17.77;100.00;100376.09;4982038;28;20201;-74
2022/07/30 02:59:11;;;;;;;5.57;5.17;;;;;;;17.73;100.00;100376.28;4975812;28;20229;-74
2022/07/30 03:01:37;;;;;;;5.40;5.00;;;;;;;17.64;100.00;100377.47;4987018;28;20205;-74
2022/07/30 03:04:04;;;;;;;5.77;5.27;;;;;;;17.57;100.00;100378.59;4988475;28;20269;-75
2022/07/30 03:06:31;;;;;;;5.03;4.63;;;;;;;17.54;100.00;100376.94;4982801;28;20276;-74
2022/07/30 03:08:58;;;;;;;5.27;4.87;;;;;;;17.53;100.00;100380.47;4978511;28;20193;-74
2022/07/30 03:11:27;;;;;;;5.60;5.20;;;;;;;17.51;100.00;100372.69;4984550;28;20220;-74
2022/07/30 03:13:52;;;;;;;5.30;4.90;;;;;;;17.51;100.00;100371.81;4983860;28;20213;-74
2022/07/30 03:16:22;;;;;;;5.47;4.93;;;;;;;17.50;100.00;100370.97;4983091;28;20552;-74
2022/07/30 03:18:48;;;;;;;5.73;5.27;;;;;;;17.50;100.00;100381.44;4998113;28;20867;-74
2022/07/30 03:21:15;;;;;;;5.10;4.73;;;;;;;17.50;100.00;100380.56;4980950;28;20212;-75
2022/07/30 03:23:43;;;;;;;5.20;4.90;;;;;;;17.49;100.00;100379.72;4983658;28;20180;-74
2022/07/30 03:26:11;;;;;;;5.43;5.03;;;;;;;17.49;100.00;100384.97;4983725;28;20189;-74
2022/07/30 03:28:38;;;;;;;5.87;5.37;;;;;;;17.47;100.00;100386.78;4978225;28;20688;-75
2022/07/30 03:31:05;;;;;;;6.57;5.87;;;;;;;17.46;100.00;100386.84;4987392;28;20645;-75
2022/07/30 03:33:32;;;;;;;5.50;5.10;;;;;;;17.46;100.00;100384.22;4987655;28;20247;-75
2022/07/30 03:35:58;;;;;;;5.60;5.20;;;;;;;17.43;100.00;100389.56;4985705;28;20202;-75
2022/07/30 03:38:25;;;;;;;6.00;5.23;;;;;;;17.43;100.00;100386.97;4986392;28;20283;-74
2022/07/30 03:40:51;;;;;;;6.13;5.63;;;;;;;17.44;100.00;100388.66;4987589;28;20212;-74
2022/07/30 03:43:18;;;;;;;5.80;5.30;;;;;;;17.44;100.00;100389.50;4981918;28;20208;-73
2022/07/30 03:45:45;;;;;;;5.70;5.30;;;;;;;17.45;100.00;100390.38;4985788;28;20749;-75
2022/07/30 03:48:12;;;;;;;5.57;5.07;;;;;;;17.48;100.00;100398.97;4983946;28;20189;-75
2022/07/30 03:50:40;;;;;;;5.93;5.53;;;;;;;17.49;100.00;100400.66;4986830;28;21019;-76
2022/07/30 03:53:07;;;;;;;5.17;4.77;;;;;;;17.49;100.00;100403.28;4997293;28;20209;-74
2022/07/30 03:55:34;;;;;;;5.57;5.07;;;;;;;17.49;100.00;100405.91;4986829;28;20684;-74
2022/07/30 03:58:00;;;;;;;5.20;4.83;;;;;;;17.49;100.00;100402.41;4984600;28;20623;-74
2022/07/30 04:00:27;;;;;;;5.80;5.27;;;;;;;17.49;100.00;100408.50;4986424;28;20300;-74
2022/07/30 04:02:53;;;;;;;5.33;4.93;;;;;;;17.50;100.00;100411.97;4983738;28;20216;-73
2022/07/30 04:05:19;;;;;;;6.47;5.33;;;;;;;17.52;100.00;100402.31;4985632;28;20197;-73
2022/07/30 04:07:45;;;;;;;6.23;5.73;;;;;;;17.55;100.00;100407.44;4999767;28;20191;-74
2022/07/30 04:10:10;;;;;;;6.03;5.43;;;;;;;17.59;100.00;100405.56;4981741;28;20205;-74
2022/07/30 04:12:36;;;;;;;6.03;5.53;;;;;;;17.62;100.00;100410.69;4978982;28;20193;-74
2022/07/30 04:15:02;;;;;;;6.03;5.53;;;;;;;17.66;100.00;100410.50;4986059;28;20214;-75
2022/07/30 04:17:48;;;;;;;5.77;5.27;;;;;;;17.71;100.00;100412.13;4989216;28;20203;-75
2022/07/30 04:20:19;;;;;;;5.67;5.27;;;;;;;17.78;100.00;100409.22;4987283;28;20212;-76
2022/07/30 04:22:46;;;;;;;5.73;5.23;;;;;;;18.11;100.00;100418.50;4978299;28;20197;-75
2022/07/30 04:25:13;;;;;;;5.87;5.37;;;;;;;18.63;100.00;100415.59;4983157;28;20225;-75
2022/07/30 04:27:39;;;;;;;5.43;4.93;;;;;;;19.08;100.00;100408.53;4986143;28;20232;-74
2022/07/30 04:30:05;;;;;;;5.17;4.77;;;;;;;19.39;99.64;100420.34;4980222;28;20602;-74
2022/07/30 04:32:31;;;;;;;5.93;5.00;;;;;;;19.59;99.00;100424.69;4999057;28;20204;-75
2022/07/30 04:34:57;;;;;;;5.23;4.83;;;;;;;19.75;97.78;100426.63;4981427;28;20302;-74
2022/07/30 04:37:26;;;;;;;5.50;5.10;;;;;;;19.98;97.00;100430.88;4981086;28;20190;-74
2022/07/30 04:39:56;;;;;;;5.60;4.53;;;;;;;20.21;95.69;100424.53;4984188;28;20225;-74
2022/07/30 04:42:26;;;;;;;5.00;4.50;;;;;;;20.18;94.80;100426.47;4984633;28;21964;-75
2022/07/30 04:44:52;;;;;;;5.10;4.60;;;;;;;20.04;95.09;100433.19;4986583;28;20303;-75
2022/07/30 04:47:18;;;;;;;4.67;4.27;;;;;;;19.90;94.35;100439.09;4985135;28;20725;-74
2022/07/30 04:49:45;;;;;;;4.67;4.30;;;;;;;19.76;94.80;100442.31;4983773;28;20216;-75
2022/07/30 04:52:11;;;;;;;5.03;4.63;;;;;;;19.68;95.10;100451.44;4983725;28;20193;-74
2022/07/30 04:54:45;;;;;;;5.07;4.67;;;;;;;19.62;94.83;100444.69;4984997;28;20382;-74
2022/07/30 04:57:13;;;;;;;5.57;5.07;;;;;;;19.59;94.89;100443.06;4983994;28;20191;-75
2022/07/30 04:59:38;;;;;;;4.80;4.40;;;;;;;19.60;94.70;100449.16;4982277;28;20278;-74
2022/07/30 05:02:06;;;;;;;5.43;5.03;;;;;;;19.63;94.58;100451.66;4985232;28;20542;-74
2022/07/30 05:04:33;;;;;;;5.00;4.60;;;;;;;19.68;94.58;100447.06;4982106;28;20635;-74
2022/07/30 05:07:00;;;;;;;5.33;4.83;;;;;;;19.74;94.89;100451.19;4982330;28;20191;-74
2022/07/30 05:09:26;;;;;;;5.00;4.60;;;;;;;19.78;94.56;100447.50;4985288;28;20219;-74
2022/07/30 05:11:54;;;;;;;4.97;4.57;;;;;;;19.83;94.13;100448.13;4983244;28;20200;-75
2022/07/30 05:14:21;;;;;;;5.33;4.23;;;;;;;19.89;94.02;100444.44;4982570;28;20234;-74
2022/07/30 05:16:46;;;;;;;5.13;4.73;;;;;;;20.06;93.61;100448.91;4984713;28;20192;-73
2022/07/30 05:19:12;;;;;;;4.53;4.13;;;;;;;20.48;92.45;100453.06;4984698;28;21935;-74
2022/07/30 05:21:38;;;;;;;5.03;4.57;;;;;;;20.74;91.63;100458.00;4981376;28;20216;-74
2022/07/30 05:24:03;;;;;;;4.83;4.43;;;;;;;21.06;90.58;100445.88;4985331;28;20219;-74
2022/07/30 05:26:29;;;;;;;4.83;4.43;;;;;;;21.57;89.00;100455.59;4979167;28;20734;-75
2022/07/30 05:28:54;;;;;;;4.50;4.10;;;;;;;21.86;87.98;100456.72;4986083;28;20633;-74
2022/07/30 05:31:19;;;;;;;4.63;4.23;;;;;;;22.67;86.21;100458.47;4986314;28;20208;-74
2022/07/30 05:33:45;;;;;;;4.73;4.33;;;;;;;23.83;82.60;100458.72;4990649;28;20646;-74
2022/07/30 05:36:10;;;;;;;4.43;4.03;;;;;;;24.93;79.13;100458.84;4982368;28;20592;-75
2022/07/30 05:38:36;;;;;;;5.53;4.03;;;;;;;25.78;75.46;100455.75;4983639;28;20236;-74
2022/07/30 05:41:01;;;;;;;4.37;4.03;;;;;;;26.46;73.05;100458.03;4983486;28;20299;-74
2022/07/30 05:43:27;;;;;;;5.57;4.00;;;;;;;26.98;71.72;100447.13;4980609;28;20671;-75
2022/07/30 05:45:52;;;;;;;4.17;3.77;;;;;;;27.51;70.41;100458.16;4983954;28;20280;-74
2022/07/30 05:48:17;;;;;;;3.80;3.50;;;;;;;28.02;69.55;100457.78;4986202;28;20185;-74
2022/07/30 05:50:43;;;;;;;3.80;3.50;;;;;;;28.52;68.31;100455.47;4988841;28;20205;-74
2022/07/30 05:53:08;;;;;;;5.73;3.73;;;;;;;28.95;67.20;100451.09;4984076;28;20259;-75
2022/07/30 05:55:34;;;;;;;4.57;3.50;;;;;;;29.23;65.91;100453.25;4983211;28;20291;-74
2022/07/30 05:57:59;;;;;;;3.50;3.30;;;;;;;29.52;64.85;100449.91;4987349;28;20250;-74
2022/07/30 06:00:24;;;;;;;3.57;3.37;;;;;;;29.87;64.21;100451.31;4982288;28;20220;-74
2022/07/30 06:02:50;;;;;;;4.20;3.30;;;;;;;30.22;63.02;100455.34;4986094;28;20207;-74
2022/07/30 06:05:15;;;;;;;3.67;3.37;;;;;;;30.34;62.40;100456.91;4984585;28;20778;-74
2022/07/30 06:07:41;;;;;;;3.63;3.33;;;;;;;30.56;61.84;100457.66;4984148;28;20787;-75
2022/07/30 06:10:06;;;;;;;3.27;3.07;;;;;;;30.73;61.22;100457.94;4976138;28;20212;-74
2022/07/30 06:12:32;;;;;;;3.93;3.60;;;;;;;30.99;61.44;100466.22;4988868;28;20188;-74
2022/07/30 06:14:57;;;;;;;3.70;3.40;;;;;;;31.32;60.91;100461.38;4989430;28;20217;-73
2022/07/30 06:17:23;;;;;;;4.00;3.60;;;;;;;31.58;59.74;100461.59;4990699;28;20334;-74
2022/07/30 06:19:49;;;;;;;3.67;3.37;;;;;;;31.77;59.24;100467.88;4983067;28;20681;-74
2022/07/30 06:22:15;;;;;;;3.37;3.10;;;;;;;31.85;58.83;100465.28;4990499;28;20189;-75
2022/07/30 06:24:41;;;;;;;3.90;3.17;;;;;;;31.98;58.48;100470.31;4990636;28;20208;-74
2022/07/30 06:27:07;;;;;;;4.93;3.10;;;;;;;31.97;58.60;100468.63;4988502;28;20606;-74
2022/07/30 06:29:32;;;;;;;3.33;3.03;;;;;;;32.25;58.50;100465.09;4990066;28;20252;-74
2022/07/30 06:31:58;;;;;;;3.60;3.30;;;;;;;32.36;57.72;100465.75;4985977;28;20235;-74
2022/07/30 06:34:23;;;;;;;3.40;3.10;;;;;;;32.41;58.16;100456.38;4987078;28;20204;-73
2022/07/30 06:36:48;;;;;;;3.50;3.20;;;;;;;32.53;57.78;100466.72;4989223;28;20196;-75
2022/07/30 06:39:15;;;;;;;3.40;3.10;;;;;;;32.61;57.83;100473.16;4989510;28;20189;-74
2022/07/30 06:41:40;;;;;;;3.40;3.10;;;;;;;32.66;57.78;100478.91;4989158;28;20704;-74
2022/07/30 06:44:05;;;;;;;3.97;3.60;;;;;;;32.81;57.63;100472.03;4989411;28;20291;-74
2022/07/30 06:46:31;;;;;;;3.95;3.50;;;;;;;32.98;58.05;100472.16;4985575;28;20190;-74
2022/07/30 06:48:56;;;;;;;3.20;3.00;;;;;;;33.19;57.61;100473.66;4984389;28;20769;-74
2022/07/30 06:51:22;;;;;;;3.90;3.50;;;;;;;33.20;56.91;100467.28;4989662;28;20207;-74
2022/07/30 06:53:47;;;;;;;3.53;3.23;;;;;;;33.21;56.67;100469.81;4989268;28;20302;-74
2022/07/30 06:56:13;;;;;;;3.53;3.22;;;;;;;33.26;56.33;100472.00;4983599;28;20551;-74
2022/07/30 06:58:39;;;;;;;3.20;2.90;;;;;;;33.26;56.18;100475.53;4989990;28;20192;-74
2022/07/30 07:01:05;;;;;;;5.32;3.30;;;;;;;33.30;56.65;100476.06;4982708;28;20212;-74
2022/07/30 07:03:30;;;;;;;3.80;3.50;;;;;;;33.39;56.09;100480.50;4986548;28;20185;-75
2022/07/30 07:05:56;;;;;;;3.95;3.35;;;;;;;33.50;56.11;100482.06;4988568;28;20262;-74
2022/07/30 07:08:21;;;;;;;3.85;3.28;;;;;;;33.52;55.72;100476.53;4987787;28;20569;-74
2022/07/30 07:10:47;;;;;;;3.65;3.35;;;;;;;33.67;56.16;100482.16;4988492;28;20363;-75
2022/07/30 07:13:12;;;;;;;4.03;3.30;;;;;;;33.59;55.87;100475.72;4996291;28;20209;-74
2022/07/30 07:15:38;;;;;;;3.45;3.15;;;;;;;33.27;56.26;100484.41;4989126;28;20181;-74
2022/07/30 07:18:04;;;;;;;4.03;3.47;;;;;;;33.04;56.43;100492.13;4989013;28;20236;-73
2022/07/30 07:20:39;;;;;;;4.95;3.38;;;;;;;33.35;56.46;100487.19;4988678;28;20200;-74
2022/07/30 07:23:04;;;;;;;3.33;3.13;;;;;;;33.77;56.38;100485.53;4984404;28;20542;-74
2022/07/30 07:25:30;;;;;;;3.38;3.08;;;;;;;34.23;56.00;100485.25;4985965;28;20192;-74
2022/07/30 07:27:55;;;;;;;3.53;2.95;;;;;;;34.25;55.63;100488.59;4988033;28;20637;-74
2022/07/30 07:30:20;;;;;;;4.45;3.53;;;;;;;33.99;55.36;100483.31;4988104;28;20259;-74
2022/07/30 07:32:46;;;;;;;3.40;3.10;;;;;;;34.24;55.74;100486.06;4989487;28;20636;-74
2022/07/30 07:35:12;;;;;;;3.20;3.00;;;;;;;34.49;55.57;100485.13;4988460;28;20688;-74
2022/07/30 07:37:38;;;;;;;4.03;3.17;;;;;;;34.71;55.38;100484.66;4985334;28;20189;-73
2022/07/30 07:40:04;;;;;;;4.97;3.30;;;;;;;34.94;55.01;100484.88;4990347;28;20715;-74
2022/07/30 07:42:29;;;;;;;5.45;3.25;;;;;;;35.10;54.79;100481.31;4986962;28;20201;-74
2022/07/30 07:44:55;;;;;;;3.50;3.13;;;;;;;35.13;55.11;100478.28;4984288;28;20173;-74
2022/07/30 07:47:20;;;;;;;4.15;2.78;;;;;;;35.12;54.64;100478.44;4990978;28;20728;-74
2022/07/30 07:49:46;;;;;;;3.58;3.28;;;;;;;35.10;54.82;100482.13;4989346;28;20936;-74
2022/07/30 07:52:11;;;;;;;3.15;2.85;;;;;;;35.02;54.39;100479.47;4986056;28;20185;-75
2022/07/30 07:54:36;;;;;;;3.30;3.00;;;;;;;34.77;55.14;100481.28;4992269;28;20783;-74
2022/07/30 07:57:06;;;;;;;3.15;2.83;;;;;;;34.53;55.31;100474.06;4989202;28;20626;-74
2022/07/30 07:59:32;;;;;;;3.10;2.90;;;;;;;34.50;55.48;100476.06;4985412;28;20201;-75
2022/07/30 08:01:57;;;;;;;3.45;3.15;;;;;;;34.46;55.62;100477.41;4988331;28;20188;-75
2022/07/30 08:04:23;;;;;;;3.83;3.30;;;;;;;34.29;55.75;100479.19;4988170;28;20197;-74
2022/07/30 08:06:48;;;;;;;3.47;3.13;;;;;;;34.00;55.81;100479.63;4987266;28;20283;-75
2022/07/30 08:09:14;;;;;;;3.25;3.05;;;;;;;33.75;56.07;100479.50;4985578;28;20212;-74
2022/07/30 08:11:39;;;;;;;4.30;3.17;;;;;;;33.64;56.06;100483.31;4987488;28;20196;-74
2022/07/30 08:14:13;;;;;;;4.25;3.08;;;;;;;33.54;56.37;100472.72;4986373;28;20200;-74
2022/07/30 08:16:38;;;;;;;3.25;3.00;;;;;;;33.33;56.67;100477.56;4988100;28;20193;-74
2022/07/30 08:19:04;;;;;;;3.50;3.03;;;;;;;33.11;56.98;100487.84;4988685;28;20188;-74
2022/07/30 08:21:29;;;;;;;4.03;3.10;;;;;;;32.92;57.19;100494.22;4986336;28;20205;-74
2022/07/30 08:23:54;;;;;;;4.15;2.95;;;;;;;32.68;57.47;100479.59;4982840;28;20185;-73
2022/07/30 08:26:20;;;;;;;5.00;3.55;;;;;;;32.37;57.51;100474.59;4981920;28;20212;-74
2022/07/30 08:28:45;;;;;;;3.53;3.22;;;;;;;32.07;57.83;100469.41;4982760;28;20285;-74
2022/07/30 08:31:10;;;;;;;3.50;3.30;;;;;;;31.81;58.29;100471.97;4982189;28;20209;-75
2022/07/30 08:33:36;;;;;;;2.90;2.70;;;;;;;31.59;58.84;100465.94;4984297;28;20228;-74
2022/07/30 08:36:01;;;;;;;3.58;3.28;;;;;;;31.38;59.28;100470.69;4985073;28;20216;-73
2022/07/30 08:38:27;;;;;;;3.23;2.93;;;;;;;31.14;59.20;100472.00;4986832;28;20232;-74
2022/07/30 08:40:55;;;;;;;3.10;2.87;;;;;;;30.90;59.64;100470.59;4987295;28;20205;-74
2022/07/30 08:43:23;;;;;;;3.10;2.90;;;;;;;30.60;59.86;100475.13;4982402;28;20220;-74
2022/07/30 08:45:50;;;;;;;2.90;2.70;;;;;;;30.37;59.85;100469.16;4986447;28;20197;-76
2022/07/30 08:48:19;;;;;;;3.30;2.73;;;;;;;30.19;60.60;100471.63;4986267;28;20185;-75
2022/07/30 08:50:45;;;;;;;3.20;3.00;;;;;;;29.99;60.60;100470.75;4986763;28;20258;-75
2022/07/30 08:53:11;;;;;;;3.30;3.10;;;;;;;29.84;60.91;100470.25;4988215;28;20204;-74
2022/07/30 08:55:37;;;;;;;3.20;2.90;;;;;;;29.66;60.41;100469.06;4985984;28;20251;-75
2022/07/30 08:58:05;;;;;;;2.53;2.33;;;;;;;29.55;59.20;100469.16;4985464;28;20895;-74
2022/07/30 09:00:30;;;;;;;3.07;2.77;;;;;;;29.45;59.76;100468.25;4985819;28;20240;-75
2022/07/30 09:02:56;;;;;;;3.10;2.80;;;;;;;29.40;60.15;100476.66;4987496;28;20204;-76
2022/07/30 09:05:22;;;;;;;2.77;2.57;;;;;;;29.37;60.20;100465.41;4985606;28;20623;-75
2022/07/30 09:07:47;;;;;;;3.00;2.33;;;;;;;29.33;59.63;100468.31;4979975;28;20193;-76
2022/07/30 09:10:13;;;;;;;2.97;2.47;;;;;;;29.23;58.75;100462.06;4986305;28;20228;-75
2022/07/30 09:12:44;;;;;;;3.70;2.73;;;;;;;29.14;57.80;100473.53;4987209;28;20248;-74
2022/07/30 09:15:11;;;;;;;2.63;2.30;;;;;;;29.09;58.03;100473.06;4985892;28;20696;-76
2022/07/30 09:17:59;;;;;;;2.40;2.20;;;;;;;29.13;58.63;100467.34;4987225;28;20188;-76
2022/07/30 09:20:31;;;;;;;2.83;2.63;;;;;;;29.18;58.77;100473.13;4980650;28;20691;-75
2022/07/30 09:23:00;;;;;;;4.50;2.50;;;;;;;29.22;58.58;100476.38;4983477;28;20770;-77
2022/07/30 09:25:33;;;;;;;3.73;2.93;;;;;;;29.23;58.76;100472.72;4985323;28;20193;-76
2022/07/30 09:27:59;;;;;;;2.93;2.70;;;;;;;29.26;58.86;100471.63;4985204;28;20668;-76
2022/07/30 09:30:25;;;;;;;3.00;2.80;;;;;;;29.26;58.73;100472.47;4984328;28;20319;-77
2022/07/30 09:32:53;;;;;;;3.10;2.80;;;;;;;29.25;58.29;100469.94;4977700;28;20182;-74
2022/07/30 09:35:18;;;;;;;2.50;2.30;;;;;;;29.28;58.79;100459.88;4980464;28;20189;-74
2022/07/30 09:37:45;;;;;;;2.57;2.37;;;;;;;29.33;59.10;100471.00;4997786;28;20200;-74
2022/07/30 09:40:17;;;;;;;3.13;2.47;;;;;;;29.39;58.92;100452.78;4988851;28;20208;-75
2022/07/30 09:42:43;;;;;;;2.93;2.60;;;;;;;29.40;58.27;100462.47;4986408;28;20199;-76
2022/07/30 09:45:11;;;;;;;2.70;2.27;;;;;;;29.40;58.05;100457.16;4986630;28;20177;-76
2022/07/30 09:47:43;;;;;;;5.83;2.70;;;;;;;29.44;57.76;100463.91;4982021;28;20235;-76
2022/07/30 09:50:11;;;;;;;3.30;2.23;;;;;;;29.37;57.61;100460.94;4983702;28;20213;-75
2022/07/30 09:52:40;;;;;;;2.40;2.27;;;;;;;29.37;57.40;100458.25;4986607;28;20197;-75
2022/07/30 09:55:06;;;;;;;3.77;2.40;;;;;;;29.40;57.33;100457.16;4985904;28;20256;-74
2022/07/30 09:57:31;;;;;;;2.30;2.20;;;;;;;29.32;57.54;100450.63;4986578;28;20193;-75
2022/07/30 10:00:14;;;;;;;2.87;2.67;;;;;;;29.31;57.92;100448.09;4984636;28;20227;-74
2022/07/30 10:02:39;;;;;;;2.83;2.57;;;;;;;29.39;57.87;100453.66;4987428;28;20549;-75
2022/07/30 10:05:15;;;;;;;2.57;2.30;;;;;;;29.47;57.78;100453.81;5000585;28;20182;-75
2022/07/30 10:07:54;;;;;;;2.40;2.20;;;;;;;29.55;56.54;100452.31;4986372;28;20259;-75
2022/07/30 10:10:22;;;;;;;2.40;2.20;;;;;;;29.49;56.61;100445.69;4985693;28;20243;-74
2022/07/30 10:12:51;;;;;;;2.73;2.47;;;;;;;29.46;56.52;100445.97;4983444;28;20189;-73
2022/07/30 10:15:19;;;;;;;2.37;2.17;;;;;;;29.42;57.07;100450.69;4985798;28;20247;-74
2022/07/30 10:17:46;;;;;;;3.10;2.50;;;;;;;29.49;57.46;100445.69;4984099;28;20216;-73
2022/07/30 10:20:13;;;;;;;2.60;2.40;;;;;;;29.50;57.27;100444.69;4983346;28;20259;-74
2022/07/30 10:22:40;;;;;;;2.53;2.33;;;;;;;29.47;58.17;100439.66;4978130;28;20695;-74
2022/07/30 10:25:06;;;;;;;2.67;2.47;;;;;;;29.57;58.23;100447.69;4983724;28;20190;-74
2022/07/30 10:27:32;;;;;;;3.27;2.37;;;;;;;29.72;57.75;100437.50;4985864;28;20189;-74
2022/07/30 10:29:59;;;;;;;3.50;2.30;;;;;;;29.84;57.77;100436.41;4985934;28;20304;-75
2022/07/30 10:32:27;;;;;;;3.03;2.73;;;;;;;30.00;58.31;100435.09;4986558;28;20193;-74
2022/07/30 10:34:53;;;;;;;3.40;2.77;;;;;;;30.06;57.93;100427.38;4981237;28;20212;-74
2022/07/30 10:37:21;;;;;;;4.27;2.37;;;;;;;29.89;58.06;100439.53;4977890;28;20303;-75
2022/07/30 10:39:53;;;;;;;2.93;2.70;;;;;;;29.54;57.49;100435.47;4984737;28;20267;-76
2022/07/30 10:42:37;;;;;;;3.93;2.50;;;;;;;29.12;58.10;100432.84;4983511;28;20200;-76
2022/07/30 10:45:49;;;;;;;3.03;2.73;;;;;;;28.83;58.78;100429.00;4985202;28;20184;-75
2022/07/30 10:48:18;;;;;;;2.63;2.43;;;;;;;28.77;59.62;100434.00;4983143;28;20200;-75
2022/07/30 10:50:55;;;;;;;4.47;2.30;;;;;;;28.90;58.70;100422.19;4984091;28;20205;-75
2022/07/30 10:53:45;;;;;;;2.70;2.50;;;;;;;29.04;58.91;100426.31;4985439;28;20258;-76
2022/07/30 10:56:24;;;;;;;2.43;2.23;;;;;;;29.32;59.16;100423.13;4983495;28;20216;-76
2022/07/30 10:59:04;;;;;;;3.77;2.30;;;;;;;29.54;58.85;100424.81;4984012;28;20188;-75
2022/07/30 11:01:51;;;;;;;3.10;2.40;;;;;;;29.75;57.69;100434.56;4982717;28;20242;-75
2022/07/30 11:04:24;;;;;;;2.20;2.00;;;;;;;29.92;57.39;100422.41;4980373;28;20672;-77
2022/07/30 11:06:51;;;;;;;2.13;1.97;;;;;;;30.07;57.04;100421.06;4989476;28;20590;-75
2022/07/30 11:09:39;;;;;;;2.70;2.43;;;;;;;30.19;57.01;100426.25;4992005;28;20230;-75
2022/07/30 11:12:08;;;;;;;1.70;1.60;;;;;;;30.24;57.16;100424.03;4988037;28;20186;-74
2022/07/30 11:14:46;;;;;;;2.10;1.87;;;;;;;30.39;57.04;100419.13;5002166;28;20213;-75
2022/07/30 11:17:16;;;;;;;2.20;2.10;;;;;;;30.54;56.68;100409.75;4985167;28;20189;-76
2022/07/30 11:20:07;;;;;;;2.80;2.60;;;;;;;30.65;56.55;100414.09;4988052;28;20217;-74
2022/07/30 11:22:39;;;;;;;3.07;2.00;;;;;;;30.80;56.66;100409.16;5001669;28;20272;-75
2022/07/30 11:25:06;;;;;;;2.60;2.10;;;;;;;30.91;55.32;100401.97;4984654;28;20276;-75
2022/07/30 11:27:47;;;;;;;2.27;2.07;;;;;;;31.07;55.10;100406.72;4986371;28;20225;-74
2022/07/30 11:30:15;;;;;;;2.03;1.90;;;;;;;31.30;55.26;100396.56;4990076;28;20699;-74